Time;durP1;ratioP1;P1;durP2;ratioP2;P2;SDS_P1;SDS_P2;PMS_P1;PMS_P2;Temp;Humidity;BMP_temperature;BMP_pressure;BME280_temperature;BME280_humidity;BME280_pressure;Samples;Min_cycle;Max_cycle;Signal;HPM_P1;HPM_P2
2021/11/02 00:00:38;;;;;;;0.30;0.30;;;20.90;73.40;;;;;;5089002;28;20127;-32
2021/11/02 00:03:04;;;;;;;0.40;0.40;;;20.90;73.40;;;;;;5097621;28;20032;-32
2021/11/02 00:05:31;;;;;;;0.30;0.30;;;20.90;73.40;;;;;;5096164;28;20066;-32
2021/11/02 00:07:57;;;;;;;0.30;0.30;;;20.80;73.40;;;;;;5090166;28;20288;-34
2021/11/02 00:10:23;;;;;;;0.40;0.30;;;20.80;73.30;;;;;;5100701;28;20024;-35
2021/11/02 00:12:49;;;;;;;0.40;0.32;;;20.80;73.30;;;;;;5093203;28;20062;-35
2021/11/02 00:15:21;;;;;;;0.30;0.30;;;20.80;73.80;;;;;;5099441;28;20047;-35
2021/11/02 00:17:50;;;;;;;0.30;0.25;;;20.80;73.10;;;;;;5101119;28;20276;-35
2021/11/02 00:20:17;;;;;;;0.40;0.40;;;20.80;73.10;;;;;;5100605;28;20024;-35
2021/11/02 00:22:53;;;;;;;0.40;0.30;;;20.80;73.10;;;;;;5101851;28;20557;-34
2021/11/02 00:25:20;;;;;;;0.40;0.40;;;20.70;73.00;;;;;;5095211;28;20024;-34
2021/11/02 00:27:46;;;;;;;;;;;20.70;73.00;;;;;;5102725;28;20042;-35
2021/11/02 00:30:14;;;;;;;0.35;0.35;;;20.70;72.90;;;;;;5094598;28;19998;-34
2021/11/02 00:32:41;;;;;;;0.40;0.40;;;20.60;73.00;;;;;;5099713;28;20059;-35
2021/11/02 00:35:07;;;;;;;0.30;0.30;;;20.70;73.00;;;;;;5096813;28;20031;-35
2021/11/02 00:37:34;;;;;;;0.63;0.50;;;20.60;72.90;;;;;;5102233;28;20036;-35
2021/11/02 00:40:01;;;;;;;0.75;0.40;;;20.60;72.90;;;;;;5101904;28;20030;-35
2021/11/02 00:42:38;;;;;;;0.30;0.30;;;20.70;73.40;;;;;;5100401;28;20036;-35
2021/11/02 00:45:11;;;;;;;0.67;0.40;;;20.70;73.10;;;;;;5095593;28;20028;-35
2021/11/02 00:47:37;;;;;;;0.47;0.40;;;20.80;73.20;;;;;;5097626;28;20032;-35
2021/11/02 00:50:09;;;;;;;0.30;0.30;;;20.70;72.80;;;;;;5091906;28;20027;-35
2021/11/02 00:52:37;;;;;;;0.50;0.50;;;20.70;72.80;;;;;;5088224;28;20328;-35
2021/11/02 00:55:05;;;;;;;0.30;0.30;;;20.70;72.80;;;;;;5101100;28;20027;-35
2021/11/02 00:57:31;;;;;;;0.40;0.40;;;20.60;72.80;;;;;;5075811;28;20029;-35
2021/11/02 00:59:58;;;;;;;0.40;0.40;;;20.60;72.90;;;;;;5093946;28;20036;-35
2021/11/02 01:02:24;;;;;;;0.38;0.38;;;20.60;72.80;;;;;;5097159;28;20028;-35
2021/11/02 01:04:50;;;;;;;0.55;0.40;;;20.60;72.80;;;;;;5097874;28;20041;-35
2021/11/02 01:07:16;;;;;;;0.67;0.40;;;20.60;72.90;;;;;;5101213;28;20032;-35
2021/11/02 01:09:43;;;;;;;1.10;0.30;;;20.60;73.20;;;;;;5096364;28;20028;-35
2021/11/02 01:12:10;;;;;;;0.95;0.50;;;20.60;73.20;;;;;;5098904;28;20296;-35
2021/11/02 01:14:37;;;;;;;0.47;0.47;;;20.70;73.30;;;;;;5102063;28;20024;-34
2021/11/02 01:17:03;;;;;;;0.30;0.30;;;20.70;73.10;;;;;;5101873;28;20044;-35
2021/11/02 01:19:30;;;;;;;0.30;0.30;;;20.70;72.90;;;;;;5101673;28;20020;-35
2021/11/02 01:21:56;;;;;;;0.47;0.43;;;20.60;72.80;;;;;;5094601;28;20568;-40
2021/11/02 01:24:22;;;;;;;0.30;0.30;;;20.60;72.70;;;;;;5099401;28;20024;-40
2021/11/02 01:26:48;;;;;;;0.40;0.32;;;20.60;72.80;;;;;;5097887;28;20422;-41
2021/11/02 01:29:18;;;;;;;0.52;0.50;;;20.60;72.90;;;;;;5097791;28;20443;-41
2021/11/02 01:31:44;;;;;;;0.60;0.50;;;20.60;72.90;;;;;;5097495;28;20089;-41
2021/11/02 01:34:11;;;;;;;1.80;0.50;;;20.50;72.90;;;;;;5099102;28;20032;-40
2021/11/02 01:36:38;;;;;;;0.73;0.50;;;20.50;73.00;;;;;;5096981;28;20298;-39
2021/11/02 01:39:06;;;;;;;0.40;0.40;;;20.60;73.20;;;;;;5101535;28;20058;-41
2021/11/02 01:41:33;;;;;;;0.45;0.45;;;20.60;73.20;;;;;;5097674;28;20036;-41
2021/11/02 01:43:59;;;;;;;0.75;0.70;;;20.60;72.80;;;;;;5097504;28;20028;-41
2021/11/02 01:46:27;;;;;;;0.50;0.45;;;20.60;72.80;;;;;;5092940;28;20039;-42
2021/11/02 01:48:55;;;;;;;0.70;0.50;;;20.60;72.80;;;;;;5100552;28;20024;-41
2021/11/02 01:51:22;;;;;;;0.50;0.50;;;20.60;73.00;;;;;;5088342;28;20029;-41
2021/11/02 01:53:48;;;;;;;0.52;0.38;;;20.50;72.80;;;;;;5088417;28;20108;-42
2021/11/02 01:56:17;;;;;;;0.60;0.57;;;20.50;72.80;;;;;;5091722;28;20558;-42
2021/11/02 01:58:46;;;;;;;0.30;0.30;;;20.50;73.10;;;;;;5097371;28;20043;-41
2021/11/02 02:01:16;;;;;;;0.40;0.40;;;20.60;73.30;;;;;;5099852;28;20037;-40
2021/11/02 02:04:36;;;;;;;0.50;0.50;;;20.60;73.10;;;;;;5075389;28;20028;-43
2021/11/02 02:07:18;;;;;;;0.70;0.40;;;20.60;72.70;;;;;;5022558;28;20029;-40
2021/11/02 02:10:03;;;;;;;0.57;0.50;;;20.60;72.70;;;;;;5022296;28;20038;-41
2021/11/02 02:12:43;;;;;;;0.40;0.40;;;20.50;72.80;;;;;;5006698;28;20037;-41
2021/11/02 02:15:16;;;;;;;0.60;0.60;;;20.50;72.80;;;;;;5007165;28;20045;-43
2021/11/02 02:18:09;;;;;;;0.73;0.60;;;20.50;72.90;;;;;;5005730;28;20026;-42
2021/11/02 02:21:12;;;;;;;0.60;0.60;;;20.40;72.70;;;;;;5006995;28;20139;-40
2021/11/02 02:23:49;;;;;;;0.45;0.45;;;20.50;73.10;;;;;;5022085;28;20029;-41
2021/11/02 02:26:37;;;;;;;0.77;0.70;;;20.50;73.10;;;;;;5021968;28;20087;-41
2021/11/02 02:29:05;;;;;;;0.50;0.40;;;20.60;72.90;;;;;;5022181;28;20030;-42
2021/11/02 02:31:33;;;;;;;0.80;0.50;;;20.50;72.60;;;;;;5021042;28;20026;-42
2021/11/02 02:34:00;;;;;;;0.65;0.63;;;20.50;72.60;;;;;;5003919;28;20045;-42
2021/11/02 02:36:26;;;;;;;0.80;0.50;;;20.50;72.80;;;;;;5005696;28;20022;-41
2021/11/02 02:38:52;;;;;;;0.65;0.57;;;20.40;72.80;;;;;;5003161;28;20026;-41
2021/11/02 02:41:22;;;;;;;0.68;0.50;;;20.40;72.80;;;;;;5073732;28;20167;-42
2021/11/02 02:43:48;;;;;;;1.20;0.63;;;20.40;72.90;;;;;;5090891;28;20618;-41
2021/11/02 02:46:15;;;;;;;0.50;0.50;;;20.50;73.30;;;;;;5082242;28;20022;-41
2021/11/02 02:48:43;;;;;;;0.80;0.70;;;20.50;73.00;;;;;;5096094;28;20044;-41
2021/11/02 02:51:10;;;;;;;0.60;0.52;;;20.60;72.90;;;;;;5097584;28;20028;-42
2021/11/02 02:53:36;;;;;;;;;;;20.60;72.70;;;;;;5080615;28;20119;-43
2021/11/02 02:56:03;;;;;;;0.77;0.70;;;20.50;72.60;;;;;;5104386;28;19940;-42
2021/11/02 02:58:31;;;;;;;;;;;20.50;72.90;;;;;;5104901;28;20052;-42
2021/11/02 03:00:57;;;;;;;0.87;0.70;;;20.40;72.80;;;;;;5102870;28;19938;-42
2021/11/02 03:03:24;;;;;;;0.80;0.50;;;20.40;72.80;;;;;;5090471;28;20261;-42
2021/11/02 03:05:53;;;;;;;0.95;0.77;;;20.40;72.80;;;;;;5077804;28;20104;-42
2021/11/02 03:08:20;;;;;;;1.30;0.80;;;20.30;72.70;;;;;;5096158;28;20110;-41
2021/11/02 03:10:46;;;;;;;;;;;20.40;73.00;;;;;;5092975;28;20036;-42
2021/11/02 03:13:14;;;;;;;0.90;0.70;;;20.50;73.20;;;;;;5102569;28;20011;-41
2021/11/02 03:15:49;;;;;;;0.50;0.50;;;20.50;72.80;;;;;;5094627;28;20032;-41
2021/11/02 03:18:32;;;;;;;0.77;0.70;;;20.50;72.60;;;;;;5076765;28;20020;-42
2021/11/02 03:43:39;;;;;;;0.80;0.60;;;20.40;72.60;;;;;;5027804;28;20040;-42
2021/11/02 03:49:01;;;;;;;1.00;0.77;;;20.30;72.70;;;;;;5028094;28;20125;-41
2021/11/02 03:57:30;;;;;;;1.30;0.90;;;20.40;73.20;;;;;;5030274;28;20072;-41
2021/11/02 05:19:50;;;;;;;;;;;20.20;72.90;;;;;;5082410;28;20063;-42
2021/11/02 06:00:24;;;;;;;1.25;0.85;;;19.80;72.60;;;;;;5105970;28;20085;-43
2021/11/02 06:03:07;;;;;;;1.30;0.90;;;19.80;72.70;;;;;;5106392;28;20046;-42
2021/11/02 06:28:52;;;;;;;1.48;1.10;;;19.70;72.70;;;;;;5042656;28;20552;-43
2021/11/02 06:31:22;;;;;;;2.27;1.10;;;19.60;72.70;;;;;;5057512;28;20148;-42
2021/11/02 06:33:56;;;;;;;1.17;1.08;;;19.60;72.80;;;;;;5062627;28;20262;-42
2021/11/02 06:58:33;;;;;;;3.33;1.00;;;19.60;73.60;;;;;;5083889;28;20040;-42
2021/11/02 07:17:56;;;;;;;1.33;1.20;;;19.60;72.90;;;;;;5103781;28;20102;-44
2021/11/02 08:47:40;;;;;;;1.55;1.33;;;19.70;72.30;;;;;;5040214;28;20085;-44
2021/11/02 08:50:10;;;;;;;2.60;1.27;;;19.70;72.40;;;;;;5055724;28;20052;-42
2021/11/02 08:52:37;;;;;;;1.30;1.15;;;19.60;72.40;;;;;;5082186;28;20032;-43
2021/11/02 08:55:05;;;;;;;1.70;1.00;;;19.60;72.50;;;;;;5103222;28;20020;-43
2021/11/02 08:57:32;;;;;;;2.00;1.10;;;19.80;72.80;;;;;;5103063;28;20036;-42
2021/11/02 08:59:58;;;;;;;2.30;1.40;;;19.80;72.60;;;;;;5102367;28;20020;-43
2021/11/02 09:02:36;;;;;;;2.28;1.35;;;19.80;72.20;;;;;;5101549;28;20036;-43
2021/11/02 09:05:10;;;;;;;2.20;1.38;;;19.70;72.10;;;;;;5103093;28;20020;-43
2021/11/02 09:07:37;;;;;;;1.48;1.38;;;19.70;72.10;;;;;;5102802;28;20044;-42
2021/11/02 09:10:07;;;;;;;2.05;1.17;;;19.70;72.20;;;;;;5100547;28;20730;-44
2021/11/02 09:12:33;;;;;;;1.60;1.27;;;19.70;72.30;;;;;;5101442;28;20040;-43
2021/11/02 09:15:02;;;;;;;1.63;1.30;;;19.70;72.60;;;;;;5102789;28;20020;-42
2021/11/02 09:17:32;;;;;;;1.65;1.30;;;19.80;72.40;;;;;;5101295;28;20588;-43
2021/11/02 09:19:59;;;;;;;1.88;1.42;;;19.80;72.20;;;;;;5102353;28;20028;-43
2021/11/02 09:22:26;;;;;;;2.03;1.15;;;19.80;72.00;;;;;;5102778;28;20374;-43
2021/11/02 09:24:52;;;;;;;2.35;1.15;;;19.70;72.00;;;;;;5102791;28;20050;-42
2021/11/02 09:27:18;;;;;;;2.80;1.50;;;19.70;72.10;;;;;;5102510;28;20024;-43
2021/11/02 09:29:45;;;;;;;1.92;1.30;;;19.70;72.10;;;;;;5082109;28;20115;-42
2021/11/02 09:32:12;;;;;;;1.50;1.27;;;19.70;72.30;;;;;;5082265;28;20029;-43
2021/11/02 09:34:38;;;;;;;1.55;1.10;;;19.80;72.40;;;;;;5080947;28;20035;-43
2021/11/02 09:37:08;;;;;;;2.67;1.40;;;19.80;72.10;;;;;;5094027;28;20032;-43
2021/11/02 09:39:41;;;;;;;1.27;1.17;;;19.80;71.90;;;;;;5102392;28;20111;-42
2021/11/02 09:42:32;;;;;;;1.70;1.27;;;19.80;71.90;;;;;;5100955;28;20051;-42
2021/11/02 09:45:02;;;;;;;1.42;1.10;;;19.70;71.90;;;;;;5102554;28;20487;-43
2021/11/02 09:48:06;;;;;;;1.17;1.05;;;19.70;71.90;;;;;;5102471;28;20035;-43
2021/11/02 09:51:06;;;;;;;1.70;1.27;;;19.70;72.10;;;;;;5102348;28;20519;-43
2021/11/02 09:53:49;;;;;;;1.65;1.40;;;19.80;72.50;;;;;;5102428;28;20020;-42
2021/11/02 09:56:25;;;;;;;1.52;1.20;;;19.90;72.10;;;;;;5102330;28;20043;-43
2021/11/02 09:59:18;;;;;;;1.83;1.30;;;19.80;71.70;;;;;;5101845;28;20027;-42
2021/11/02 10:01:44;;;;;;;1.63;1.27;;;19.80;71.80;;;;;;5101187;28;20039;-44
2021/11/02 10:04:48;;;;;;;1.13;1.00;;;19.70;71.90;;;;;;5102403;28;20036;-43
2021/11/02 10:07:18;;;;;;;1.38;1.20;;;19.70;72.00;;;;;;5102232;28;20032;-44
2021/11/02 10:10:09;;;;;;;1.45;1.10;;;19.80;72.40;;;;;;5100500;28;20043;-44
2021/11/02 10:12:35;;;;;;;1.30;1.10;;;19.90;72.20;;;;;;5094621;28;20044;-43
2021/11/02 10:15:09;;;;;;;1.45;1.13;;;19.90;71.80;;;;;;5081872;28;20126;-42
2021/11/02 10:18:05;;;;;;;1.65;1.25;;;19.80;71.70;;;;;;5080655;28;20032;-43
2021/11/02 10:21:01;;;;;;;1.92;1.30;;;19.80;71.90;;;;;;5080372;28;20025;-43
2021/11/02 10:23:52;;;;;;;1.38;1.15;;;19.80;71.90;;;;;;4981737;28;20061;-42
2021/11/02 10:26:24;;;;;;;1.77;1.13;;;19.70;71.90;;;;;;4964460;29;20461;-43
2021/11/02 10:29:23;;;;;;;2.38;1.25;;;19.80;72.10;;;;;;4964317;29;20070;-42
2021/11/02 10:32:03;;;;;;;1.98;1.40;;;19.90;72.10;;;;;;4969267;28;20766;-42
2021/11/02 10:34:33;;;;;;;1.27;1.10;;;19.90;71.70;;;;;;5003137;28;20037;-43
2021/11/02 10:37:26;;;;;;;1.38;1.23;;;19.80;71.50;;;;;;5002896;28;20088;-42
2021/11/02 10:40:02;;;;;;;1.60;1.30;;;19.70;71.70;;;;;;5002655;28;20042;-43
2021/11/02 10:42:50;;;;;;;1.73;1.30;;;19.70;71.80;;;;;;5003142;28;20038;-43
2021/11/02 10:45:17;;;;;;;1.52;1.35;;;19.70;71.70;;;;;;4986450;28;20419;-43
2021/11/02 10:47:45;;;;;;;3.35;2.13;;;19.80;72.10;;;;;;5002955;28;20808;-42
2021/11/02 10:50:12;;;;;;;1.92;1.50;;;19.80;72.10;;;;;;5002284;28;20026;-44
2021/11/02 10:52:39;;;;;;;1.55;1.20;;;19.80;71.70;;;;;;5002405;28;20342;-42
2021/11/02 10:55:23;;;;;;;1.90;1.15;;;19.80;71.60;;;;;;5002521;28;20033;-43
2021/11/02 10:58:24;;;;;;;1.40;1.20;;;19.70;71.60;;;;;;4986707;28;20038;-42
2021/11/02 11:00:50;;;;;;;2.45;1.30;;;19.70;71.70;;;;;;5091816;28;20055;-43
2021/11/02 11:03:26;;;;;;;2.40;1.38;;;19.70;71.80;;;;;;5105223;28;20031;-43
2021/11/02 11:05:59;;;;;;;1.50;1.40;;;19.80;72.00;;;;;;5102638;28;20035;-43
2021/11/02 11:08:34;;;;;;;1.15;1.05;;;19.80;71.90;;;;;;5084693;28;20028;-43
2021/11/02 11:11:04;;;;;;;2.28;1.45;;;19.90;71.60;;;;;;5083973;28;20028;-42
2021/11/02 11:13:31;;;;;;;1.65;1.23;;;19.90;72.30;;;;;;5098578;28;20051;-43
2021/11/02 11:16:13;;;;;;;1.95;1.40;;;19.80;71.50;;;;;;5090156;28;20032;-43
2021/11/02 11:18:58;;;;;;;1.73;1.35;;;19.70;71.50;;;;;;5084407;28;20066;-42
2021/11/02 11:21:26;;;;;;;2.38;1.65;;;19.70;71.60;;;;;;5083823;28;20810;-42
2021/11/02 11:24:07;;;;;;;;;;;19.70;71.80;;;;;;5084939;28;20104;-44
2021/11/02 11:26:33;;;;;;;1.40;1.20;;;19.80;71.80;;;;;;5084297;28;19930;-43
2021/11/02 11:29:03;;;;;;;2.40;1.40;;;19.90;71.50;;;;;;5084156;28;20050;-42
2021/11/02 11:31:29;;;;;;;1.52;1.30;;;19.80;71.30;;;;;;5083807;28;20028;-42
2021/11/02 11:34:02;;;;;;;2.00;1.40;;;19.80;71.50;;;;;;5065318;28;20017;-42
2021/11/02 11:36:30;;;;;;;1.85;1.40;;;19.70;71.40;;;;;;5084426;28;20040;-42
2021/11/02 11:39:01;;;;;;;3.03;1.58;;;19.70;71.50;;;;;;5083925;28;20035;-42
2021/11/02 11:41:28;;;;;;;1.52;1.17;;;19.70;71.60;;;;;;5083597;28;20095;-41
2021/11/02 11:43:55;;;;;;;1.52;1.30;;;19.80;71.90;;;;;;5065730;28;20036;-42
2021/11/02 11:46:23;;;;;;;1.70;1.17;;;19.90;71.40;;;;;;5101436;28;20067;-43
2021/11/02 11:48:52;;;;;;;;;;;19.90;71.30;;;;;;5086215;28;20031;-42
2021/11/02 11:51:19;;;;;;;2.25;1.50;;;19.80;71.30;;;;;;5104059;28;19904;-42
2021/11/02 11:53:47;;;;;;;;;;;19.70;71.30;;;;;;5104560;28;20035;-43
2021/11/02 11:56:15;;;;;;;2.17;1.30;;;19.70;71.30;;;;;;5085853;28;19914;-43
2021/11/02 11:58:51;;;;;;;1.33;1.08;;;19.70;71.50;;;;;;5103949;28;20103;-42
2021/11/02 12:01:29;;;;;;;3.20;1.52;;;19.80;71.70;;;;;;5096988;28;20043;-42
2021/11/02 12:04:08;;;;;;;;;;;19.90;71.50;;;;;;5083716;28;20031;-43
2021/11/02 12:06:58;;;;;;;2.30;1.33;;;19.90;71.20;;;;;;5089750;28;19979;-43
2021/11/02 12:09:25;;;;;;;1.08;0.98;;;19.80;71.10;;;;;;5085279;28;20047;-42
2021/11/02 12:11:51;;;;;;;1.85;1.40;;;19.70;71.20;;;;;;5084387;28;20026;-44
2021/11/02 12:14:23;;;;;;;1.55;1.23;;;19.70;71.30;;;;;;5083639;28;20032;-42
2021/11/02 12:16:50;;;;;;;2.28;1.25;;;19.80;71.50;;;;;;5068803;28;20115;-43
2021/11/02 12:19:18;;;;;;;1.60;1.20;;;19.80;71.50;;;;;;5083172;28;20488;-43
2021/11/02 12:21:51;;;;;;;3.67;1.52;;;19.90;71.30;;;;;;5082570;28;20056;-43
2021/11/02 12:24:20;;;;;;;1.52;1.10;;;19.80;71.10;;;;;;5066105;28;20385;-42
2021/11/02 12:26:48;;;;;;;1.80;1.50;;;19.80;71.20;;;;;;5082997;28;20032;-42
2021/11/02 12:29:18;;;;;;;1.80;1.38;;;19.70;71.10;;;;;;5083057;28;20090;-43
2021/11/02 12:32:04;;;;;;;1.73;1.40;;;19.70;71.30;;;;;;5082469;28;20021;-43
2021/11/02 12:34:43;;;;;;;1.60;1.27;;;19.80;71.50;;;;;;5064945;28;20052;-43
2021/11/02 12:37:10;;;;;;;1.63;1.30;;;19.90;71.40;;;;;;5093726;28;20655;-43
2021/11/02 12:39:36;;;;;;;1.48;1.30;;;19.90;71.20;;;;;;5103158;28;20028;-43
2021/11/02 12:42:03;;;;;;;1.77;1.35;;;19.90;71.10;;;;;;5090203;28;20036;-43
2021/11/02 12:44:33;;;;;;;1.93;1.27;;;19.80;71.10;;;;;;5069095;28;20056;-43
2021/11/02 12:47:01;;;;;;;1.90;1.60;;;19.80;71.10;;;;;;5064485;28;20036;-43
2021/11/02 12:49:47;;;;;;;1.63;1.30;;;19.70;71.20;;;;;;5082230;28;20461;-42
2021/11/02 12:52:13;;;;;;;1.75;1.30;;;19.80;71.40;;;;;;5082524;28;20032;-44
2021/11/02 12:54:40;;;;;;;2.13;1.60;;;19.90;71.40;;;;;;5082702;28;20058;-42
2021/11/02 12:57:11;;;;;;;1.67;1.27;;;19.90;71.10;;;;;;5082597;28;20269;-43
2021/11/02 12:59:42;;;;;;;1.80;1.40;;;19.80;71.00;;;;;;5102113;28;20079;-43
2021/11/02 13:02:22;;;;;;;1.65;1.30;;;19.80;71.10;;;;;;5080343;28;20401;-43
2021/11/02 13:04:57;;;;;;;1.60;1.50;;;19.80;71.30;;;;;;5082405;28;20036;-42
2021/11/02 13:07:24;;;;;;;3.13;1.40;;;19.70;71.20;;;;;;5064488;28;20028;-42
2021/11/02 13:09:50;;;;;;;1.88;1.33;;;19.80;71.40;;;;;;5064423;28;20036;-43
2021/11/02 13:12:18;;;;;;;1.73;1.48;;;19.90;71.50;;;;;;5086615;28;20082;-43
2021/11/02 13:14:46;;;;;;;1.60;1.30;;;19.90;71.10;;;;;;5101115;28;20024;-43
2021/11/02 13:17:14;;;;;;;2.15;1.55;;;19.90;70.90;;;;;;5102460;28;20028;-43
2021/11/02 13:19:47;;;;;;;1.70;1.30;;;19.80;71.00;;;;;;5102610;28;20020;-43
2021/11/02 13:22:20;;;;;;;1.90;1.33;;;19.80;71.10;;;;;;5102265;28;20032;-43
2021/11/02 13:25:04;;;;;;;2.00;1.50;;;19.70;71.10;;;;;;5102824;28;20036;-43
2021/11/02 13:27:43;;;;;;;1.80;1.40;;;19.80;71.20;;;;;;5102460;28;20032;-42
2021/11/02 13:30:30;;;;;;;1.98;1.42;;;19.80;71.30;;;;;;5102189;28;20028;-43
2021/11/02 13:33:02;;;;;;;2.08;1.67;;;19.90;71.10;;;;;;5101941;28;20051;-42
2021/11/02 13:35:41;;;;;;;2.35;1.45;;;19.90;71.00;;;;;;5102488;28;20027;-43
2021/11/02 13:38:29;;;;;;;1.40;1.17;;;19.80;70.90;;;;;;5101663;28;20127;-43
2021/11/02 13:41:09;;;;;;;1.70;1.35;;;19.80;71.00;;;;;;5102375;28;20043;-43
2021/11/02 13:43:40;;;;;;;1.98;1.70;;;19.70;71.00;;;;;;5101982;28;20024;-44
2021/11/02 13:46:08;;;;;;;1.65;1.50;;;19.80;71.20;;;;;;5100906;28;20024;-42
2021/11/02 13:48:34;;;;;;;1.65;1.35;;;19.90;71.40;;;;;;5102221;28;20608;-42
2021/11/02 13:51:04;;;;;;;0.93;0.75;;;19.90;71.10;;;;;;5102444;28;20020;-43
2021/11/02 13:53:34;;;;;;;2.03;1.50;;;19.90;70.90;;;;;;5100535;28;20039;-43
2021/11/02 13:56:04;;;;;;;1.85;1.38;;;19.90;71.00;;;;;;5103003;28;20024;-43
2021/11/02 13:58:32;;;;;;;1.70;1.27;;;19.80;71.10;;;;;;5106311;28;20048;-43
2021/11/02 14:00:58;;;;;;;2.00;1.52;;;19.80;71.10;;;;;;5106278;28;20066;-43
2021/11/02 14:03:46;;;;;;;2.95;1.38;;;19.80;71.20;;;;;;5105722;28;20040;-43
2021/11/02 14:06:14;;;;;;;2.10;1.25;;;19.90;71.40;;;;;;5105236;28;20039;-43
2021/11/02 14:08:40;;;;;;;1.30;1.20;;;19.90;71.10;;;;;;5104768;28;20036;-43
2021/11/02 14:11:19;;;;;;;2.35;1.50;;;19.90;71.00;;;;;;5087552;28;20890;-42
2021/11/02 14:13:46;;;;;;;3.22;1.40;;;19.90;71.00;;;;;;5092627;28;20059;-43
2021/11/02 14:16:13;;;;;;;1.75;1.30;;;19.80;71.00;;;;;;5090425;28;20024;-43
2021/11/02 14:18:40;;;;;;;2.00;1.50;;;19.80;71.00;;;;;;5105694;28;20047;-43
2021/11/02 14:21:07;;;;;;;1.92;1.40;;;19.80;71.20;;;;;;5105819;28;20100;-43
2021/11/02 14:23:43;;;;;;;1.27;1.10;;;19.90;71.50;;;;;;5105235;28;20032;-42
2021/11/02 14:26:26;;;;;;;1.23;1.13;;;19.90;71.30;;;;;;5105718;28;20081;-42
2021/11/02 14:28:53;;;;;;;1.55;1.30;;;19.90;71.00;;;;;;5105775;28;20085;-43
2021/11/02 14:31:38;;;;;;;2.08;1.33;;;19.90;71.20;;;;;;5105643;28;20028;-40
2021/11/02 14:34:05;;;;;;;1.75;1.35;;;19.90;71.40;;;;;;5105090;28;20024;-43
2021/11/02 14:36:38;;;;;;;1.27;1.17;;;19.80;71.40;;;;;;5105346;28;20040;-43
2021/11/02 14:39:08;;;;;;;1.60;1.50;;;19.80;71.40;;;;;;5105390;28;20032;-43
2021/11/02 14:41:35;;;;;;;1.80;1.40;;;19.80;71.50;;;;;;5105296;28;20088;-42
2021/11/02 14:44:13;;;;;;;1.45;1.30;;;19.80;71.50;;;;;;5105211;28;20027;-43
2021/11/02 14:46:40;;;;;;;1.52;1.30;;;19.70;71.50;;;;;;5104884;28;20040;-43
2021/11/02 14:49:08;;;;;;;1.25;1.10;;;19.70;71.40;;;;;;5105339;28;20024;-42
2021/11/02 14:51:35;;;;;;;2.65;1.15;;;19.70;71.50;;;;;;5104934;28;20039;-43
2021/11/02 14:54:21;;;;;;;2.00;1.30;;;19.70;71.50;;;;;;5105084;28;20040;-43
2021/11/02 14:56:47;;;;;;;1.85;1.35;;;19.70;72.10;;;;;;5103661;28;20028;-43
2021/11/02 14:59:15;;;;;;;1.45;1.27;;;19.70;71.60;;;;;;5105193;28;20027;-42
2021/11/02 15:01:41;;;;;;;1.75;1.40;;;19.80;71.50;;;;;;5104762;28;20067;-42
2021/11/02 15:04:10;;;;;;;2.03;1.20;;;19.80;71.50;;;;;;5104631;28;20032;-43
2021/11/02 15:06:38;;;;;;;1.75;1.23;;;19.80;72.10;;;;;;5104574;28;20020;-43
2021/11/02 15:09:17;;;;;;;1.17;1.08;;;19.80;71.40;;;;;;5103879;28;20028;-42
2021/11/02 15:11:45;;;;;;;1.30;1.20;;;19.80;71.70;;;;;;5103168;28;20032;-46
2021/11/02 15:14:17;;;;;;;2.05;1.40;;;19.70;71.60;;;;;;5104571;28;20132;-42
2021/11/02 15:16:51;;;;;;;1.63;1.08;;;19.70;71.60;;;;;;5104677;28;20028;-42
2021/11/02 15:19:18;;;;;;;0.80;0.80;;;19.70;71.60;;;;;;5104512;28;20095;-43
2021/11/02 15:21:46;;;;;;;1.83;1.23;;;19.70;71.60;;;;;;5104592;28;20036;-43
2021/11/02 15:24:18;;;;;;;1.77;1.23;;;19.70;71.60;;;;;;5104262;28;20058;-42
2021/11/02 15:26:54;;;;;;;1.80;1.35;;;19.70;71.70;;;;;;5094818;28;20102;-42
2021/11/02 15:29:21;;;;;;;1.20;1.10;;;19.80;71.80;;;;;;5084538;28;20027;-43
2021/11/02 15:32:13;;;;;;;;;;;19.80;71.70;;;;;;5095184;28;20020;-43
2021/11/02 15:34:42;;;;;;;1.90;1.40;;;19.80;71.60;;;;;;5100901;28;20027;-44
2021/11/02 15:37:10;;;;;;;1.60;1.30;;;19.80;71.70;;;;;;5104065;28;20465;-42
2021/11/02 15:39:36;;;;;;;1.83;1.33;;;19.80;71.70;;;;;;5103813;28;20473;-42
2021/11/02 15:42:03;;;;;;;2.50;1.13;;;19.80;71.80;;;;;;5104509;28;20064;-43
2021/11/02 15:44:29;;;;;;;1.65;1.10;;;19.80;71.80;;;;;;5102679;28;20012;-34
2021/11/02 15:46:56;;;;;;;6.15;1.58;;;19.80;71.80;;;;;;5104375;28;20106;-34
2021/11/02 15:49:22;;;;;;;3.35;1.50;;;19.80;72.00;;;;;;5102671;28;20024;-34
2021/11/02 15:51:54;;;;;;;6.30;1.20;;;19.80;72.00;;;;;;5104451;28;20031;-34
2021/11/02 15:54:20;;;;;;;1.98;1.15;;;19.90;72.20;;;;;;5103580;28;20028;-35
2021/11/02 15:56:46;;;;;;;4.47;1.20;;;19.90;72.10;;;;;;5104023;28;20024;-35
2021/11/02 15:59:12;;;;;;;2.17;1.00;;;19.80;72.10;;;;;;5098809;28;20016;-40
2021/11/02 16:01:48;;;;;;;2.33;1.05;;;19.80;72.10;;;;;;5083626;28;20044;-37
2021/11/02 16:04:24;;;;;;;1.38;1.10;;;19.80;72.20;;;;;;5082103;28;20604;-38
2021/11/02 16:07:08;;;;;;;3.00;1.15;;;19.80;72.30;;;;;;5093226;28;20020;-35
2021/11/02 16:09:53;;;;;;;2.92;1.40;;;19.90;72.30;;;;;;5103568;28;20039;-37
2021/11/02 16:12:22;;;;;;;1.83;1.10;;;19.90;72.40;;;;;;5100231;28;20047;-37
2021/11/02 16:15:14;;;;;;;4.75;1.20;;;19.90;72.40;;;;;;5083026;28;20025;-37
2021/11/02 16:17:49;;;;;;;3.97;1.30;;;19.90;72.50;;;;;;5054922;28;20070;-37
2021/11/02 16:20:35;;;;;;;2.30;1.20;;;19.90;72.50;;;;;;5082895;28;20021;-37
2021/11/02 16:23:22;;;;;;;2.80;1.02;;;19.90;72.50;;;;;;5083144;28;20054;-37
2021/11/02 16:25:51;;;;;;;3.47;1.13;;;19.90;72.60;;;;;;5084962;28;20032;-37
2021/11/02 16:28:26;;;;;;;1.27;1.02;;;19.90;72.60;;;;;;5103468;28;20053;-37
2021/11/02 16:30:58;;;;;;;1.33;0.80;;;19.90;72.60;;;;;;5103372;28;20091;-37
2021/11/02 16:33:40;;;;;;;1.55;1.00;;;19.90;72.60;;;;;;5103232;28;20032;-37
2021/11/02 16:36:23;;;;;;;1.40;0.90;;;19.90;72.60;;;;;;5101421;28;20039;-37
2021/11/02 16:38:55;;;;;;;2.55;0.85;;;19.90;72.60;;;;;;5097822;28;20040;-37
2021/11/02 16:41:23;;;;;;;2.28;1.20;;;19.90;72.70;;;;;;5095296;28;20051;-38
2021/11/02 16:43:57;;;;;;;2.15;1.00;;;19.90;72.70;;;;;;5084442;28;20044;-37
2021/11/02 16:46:36;;;;;;;0.95;0.82;;;20.00;72.70;;;;;;5101289;28;20024;-37
2021/11/02 16:49:22;;;;;;;2.63;0.80;;;20.00;72.80;;;;;;5103028;28;20036;-37
2021/11/02 16:52:06;;;;;;;2.03;1.15;;;20.00;72.80;;;;;;5102945;28;20114;-37
2021/11/02 16:54:33;;;;;;;1.63;0.70;;;20.00;72.80;;;;;;5102571;28;20028;-37
2021/11/02 16:57:07;;;;;;;1.23;0.88;;;20.00;72.80;;;;;;5102530;28;20111;-37
2021/11/02 16:59:42;;;;;;;1.77;1.00;;;20.00;72.80;;;;;;5102788;28;20028;-37
2021/11/02 17:02:23;;;;;;;2.40;0.80;;;20.00;73.00;;;;;;5102529;28;20032;-37
2021/11/02 17:05:12;;;;;;;2.97;0.80;;;20.00;73.00;;;;;;5102818;28;20024;-37
2021/11/02 17:08:07;;;;;;;1.75;0.85;;;20.10;73.10;;;;;;5102534;28;20032;-37
2021/11/02 17:10:43;;;;;;;1.52;0.80;;;20.10;73.10;;;;;;5102476;28;20028;-37
2021/11/02 17:13:20;;;;;;;1.27;0.82;;;20.10;73.20;;;;;;5101136;28;20510;-37
2021/11/02 17:15:50;;;;;;;2.05;1.38;;;20.10;73.20;;;;;;5100920;28;20032;-37
2021/11/02 17:18:18;;;;;;;1.23;0.98;;;20.10;73.30;;;;;;5102305;28;20024;-37
2021/11/02 17:21:03;;;;;;;1.85;1.00;;;20.10;73.20;;;;;;5102205;28;20047;-37
2021/11/02 17:23:30;;;;;;;1.27;0.90;;;20.10;73.30;;;;;;5102494;28;20017;-37
2021/11/02 17:25:56;;;;;;;2.00;0.90;;;20.20;73.30;;;;;;5101594;28;20039;-37
2021/11/02 17:28:23;;;;;;;2.88;0.90;;;20.20;73.20;;;;;;5102343;28;20255;-37
2021/11/02 17:30:49;;;;;;;1.27;0.85;;;20.20;73.30;;;;;;5101427;28;20083;-37
2021/11/02 17:33:17;;;;;;;0.95;0.85;;;20.20;73.20;;;;;;5101949;28;20027;-37
2021/11/02 17:35:46;;;;;;;1.63;0.98;;;20.20;73.00;;;;;;5101689;28;20032;-37
2021/11/02 17:38:14;;;;;;;2.47;0.90;;;20.20;73.00;;;;;;5101726;28;20039;-37
2021/11/02 17:40:40;;;;;;;;;;;20.20;72.90;;;;;;5102703;28;20035;-37
2021/11/02 17:43:07;;;;;;;6.72;1.23;;;20.20;72.60;;;;;;5102243;28;19912;-37
2021/11/02 17:45:33;;;;;;;1.63;0.95;;;20.20;72.80;;;;;;5102216;28;20031;-37
2021/11/02 17:47:59;;;;;;;1.40;0.70;;;20.30;72.90;;;;;;5101997;28;20443;-37
2021/11/02 17:50:32;;;;;;;2.07;1.10;;;20.30;72.90;;;;;;5101973;28;20047;-37
2021/11/02 17:52:58;;;;;;;2.10;0.90;;;20.30;73.00;;;;;;5102191;28;20036;-37
2021/11/02 17:55:24;;;;;;;2.78;0.80;;;20.30;73.10;;;;;;5102233;28;20641;-37
2021/11/02 17:57:51;;;;;;;2.67;1.40;;;20.30;73.10;;;;;;5101691;28;20028;-37
2021/11/02 18:00:20;;;;;;;3.55;1.13;;;20.30;73.10;;;;;;5101860;28;20024;-37
2021/11/02 18:02:48;;;;;;;1.92;1.15;;;20.30;73.10;;;;;;5102231;28;20032;-37
2021/11/02 18:05:15;;;;;;;4.18;1.17;;;20.30;73.20;;;;;;5083241;28;20025;-37
2021/11/02 18:07:41;;;;;;;2.50;1.13;;;20.40;73.30;;;;;;5097169;28;20076;-37
2021/11/02 18:10:08;;;;;;;3.47;0.90;;;20.40;73.30;;;;;;5091280;28;20028;-37
2021/11/02 18:12:34;;;;;;;3.30;0.95;;;20.40;73.20;;;;;;5088610;28;20055;-37
2021/11/02 18:15:02;;;;;;;2.07;0.90;;;20.40;73.30;;;;;;5101952;28;20131;-37